sensor_id;sensor_type;location;lat;lon;timestamp;pressure;altitude;pressure_sealevel;temperature;humidity
50093;BME280;35974;47.752;10.290;2022-11-15T00:00:55;93716.91;;;1.97;99.37
50093;BME280;35974;47.752;10.290;2022-11-15T00:03:26;93722.31;;;1.86;99.92
50093;BME280;35974;47.752;10.290;2022-11-15T00:05:52;93721.66;;;1.83;100.00
50093;BME280;35974;47.752;10.290;2022-11-15T00:08:19;93732.38;;;1.97;99.87
50093;BME280;35974;47.752;10.290;2022-11-15T00:10:58;93720.06;;;1.82;99.17
50093;BME280;35974;47.752;10.290;2022-11-15T00:13:26;93702.88;;;1.65;99.50
50093;BME280;35974;47.752;10.290;2022-11-15T00:15:57;93717.47;;;1.82;99.62
50093;BME280;35974;47.752;10.290;2022-11-15T00:18:24;93732.38;;;1.97;99.37
50093;BME280;35974;47.752;10.290;2022-11-15T00:20:50;93720.66;;;1.76;100.00
50093;BME280;35974;47.752;10.290;2022-11-15T00:23:21;93723.09;;;1.78;100.00
50093;BME280;35974;47.752;10.290;2022-11-15T00:25:55;93718.69;;;1.70;100.00
50093;BME280;35974;47.752;10.290;2022-11-15T00:28:21;93703.84;;;1.72;100.00
50093;BME280;35974;47.752;10.290;2022-11-15T00:30:47;93712.56;;;1.71;99.57
50093;BME280;35974;47.752;10.290;2022-11-15T00:33:14;93711.78;;;1.71;99.62
50093;BME280;35974;47.752;10.290;2022-11-15T00:35:40;93706.41;;;1.64;99.37
50093;BME280;35974;47.752;10.290;2022-11-15T00:38:07;93708.31;;;1.62;99.06
50093;BME280;35974;47.752;10.290;2022-11-15T00:40:33;93713.50;;;1.62;99.32
50093;BME280;35974;47.752;10.290;2022-11-15T00:43:00;93702.19;;;1.55;99.70
50093;BME280;35974;47.752;10.290;2022-11-15T00:45:26;93731.53;;;1.62;100.00
50093;BME280;35974;47.752;10.290;2022-11-15T00:47:53;93716.03;;;1.54;100.00
50093;BME280;35974;47.752;10.290;2022-11-15T00:50:19;93713.13;;;1.57;100.00
50093;BME280;35974;47.752;10.290;2022-11-15T00:52:46;93707.03;;;1.58;100.00
50093;BME280;35974;47.752;10.290;2022-11-15T00:55:16;93725.44;;;1.63;100.00
50093;BME280;35974;47.752;10.290;2022-11-15T00:57:43;93724.41;;;1.56;100.00
50093;BME280;35974;47.752;10.290;2022-11-15T01:00:13;93689.09;;;1.82;99.14
50093;BME280;35974;47.752;10.290;2022-11-15T01:02:40;93671.91;;;2.08;98.17
50093;BME280;35974;47.752;10.290;2022-11-15T01:05:06;93673.41;;;2.18;98.66
50093;BME280;35974;47.752;10.290;2022-11-15T01:07:33;93689.56;;;2.37;98.82
50093;BME280;35974;47.752;10.290;2022-11-15T01:10:00;93698.03;;;2.55;98.66
50093;BME280;35974;47.752;10.290;2022-11-15T01:12:26;93695.59;;;2.46;98.89
50093;BME280;35974;47.752;10.290;2022-11-15T01:14:53;93670.75;;;1.94;100.00
50093;BME280;35974;47.752;10.290;2022-11-15T01:17:19;93672.91;;;1.72;100.00
50093;BME280;35974;47.752;10.290;2022-11-15T01:19:46;93678.41;;;1.69;100.00
50093;BME280;35974;47.752;10.290;2022-11-15T01:22:13;93669.69;;;1.70;100.00
50093;BME280;35974;47.752;10.290;2022-11-15T01:24:39;93666.13;;;1.63;99.71
50093;BME280;35974;47.752;10.290;2022-11-15T01:27:06;93679.97;;;1.62;99.25
50093;BME280;35974;47.752;10.290;2022-11-15T01:29:32;93674.06;;;1.43;98.49
50093;BME280;35974;47.752;10.290;2022-11-15T01:32:01;93670.75;;;1.51;98.80
50093;BME280;35974;47.752;10.290;2022-11-15T01:34:27;93677.50;;;1.26;99.01
50093;BME280;35974;47.752;10.290;2022-11-15T01:36:53;93668.81;;;1.27;99.58
50093;BME280;35974;47.752;10.290;2022-11-15T01:39:20;93655.91;;;1.19;99.47
50093;BME280;35974;47.752;10.290;2022-11-15T01:41:46;93640.38;;;1.11;99.17
50093;BME280;35974;47.752;10.290;2022-11-15T01:46:59;93678.09;;;1.20;100.00
50093;BME280;35974;47.752;10.290;2022-11-15T01:49:30;93672.31;;;1.18;100.00
50093;BME280;35974;47.752;10.290;2022-11-15T01:52:00;93652.53;;;1.00;100.00
50093;BME280;35974;47.752;10.290;2022-11-15T01:54:27;93647.97;;;0.94;100.00
50093;BME280;35974;47.752;10.290;2022-11-15T01:57:04;93643.16;;;0.91;99.83
50093;BME280;35974;47.752;10.290;2022-11-15T01:59:33;93649.91;;;0.92;100.00
50093;BME280;35974;47.752;10.290;2022-11-15T02:01:59;93631.81;;;0.84;100.00
50093;BME280;35974;47.752;10.290;2022-11-15T02:04:35;93657.38;;;1.03;99.98
50093;BME280;35974;47.752;10.290;2022-11-15T02:07:05;93627.25;;;0.78;99.56
50093;BME280;35974;47.752;10.290;2022-11-15T02:09:33;93615.59;;;0.65;99.86
50093;BME280;35974;47.752;10.290;2022-11-15T02:11:59;93641.81;;;0.87;99.32
50093;BME280;35974;47.752;10.290;2022-11-15T02:14:27;93638.28;;;0.88;99.88
50093;BME280;35974;47.752;10.290;2022-11-15T02:23:29;93622.41;;;0.75;99.50
50093;BME280;35974;47.752;10.290;2022-11-15T02:31:46;93620.06;;;0.63;99.63
50093;BME280;35974;47.752;10.290;2022-11-15T02:34:42;93615.25;;;0.60;99.90
50093;BME280;35974;47.752;10.290;2022-11-15T02:37:18;93614.41;;;0.60;99.48
50093;BME280;35974;47.752;10.290;2022-11-15T02:42:27;93599.56;;;0.53;99.46
50093;BME280;35974;47.752;10.290;2022-11-15T02:45:19;93577.38;;;0.34;99.08
50093;BME280;35974;47.752;10.290;2022-11-15T02:47:49;93605.69;;;0.52;98.72
50093;BME280;35974;47.752;10.290;2022-11-15T02:50:20;93594.78;;;0.41;99.67
50093;BME280;35974;47.752;10.290;2022-11-15T02:52:48;93612.56;;;0.52;99.72
50093;BME280;35974;47.752;10.290;2022-11-15T03:00:35;93596.72;;;0.39;100.00
50093;BME280;35974;47.752;10.290;2022-11-15T03:03:25;93598.63;;;0.36;100.00
50093;BME280;35974;47.752;10.290;2022-11-15T03:11:18;93594.78;;;0.41;99.93
50093;BME280;35974;47.752;10.290;2022-11-15T03:16:37;93590.97;;;0.45;99.33
50093;BME280;35974;47.752;10.290;2022-11-15T03:21:52;93574.69;;;0.18;100.00
50093;BME280;35974;47.752;10.290;2022-11-15T03:24:20;93544.25;;;-0.05;100.00
50093;BME280;35974;47.752;10.290;2022-11-15T03:26:53;93554.63;;;0.04;100.00
50093;BME280;35974;47.752;10.290;2022-11-15T03:29:24;93563.34;;;0.11;100.00
50093;BME280;35974;47.752;10.290;2022-11-15T03:32:07;93541.06;;;0.02;100.00
50093;BME280;35974;47.752;10.290;2022-11-15T03:34:50;93570.19;;;0.20;100.00
50093;BME280;35974;47.752;10.290;2022-11-15T03:37:20;93545.28;;;0.03;100.00
50093;BME280;35974;47.752;10.290;2022-11-15T03:39:48;93541.16;;;0.10;99.93
50093;BME280;35974;47.752;10.290;2022-11-15T03:45:05;93557.03;;;0.23;100.00
50093;BME280;35974;47.752;10.290;2022-11-15T03:47:58;93561.19;;;0.24;100.00
50093;BME280;35974;47.752;10.290;2022-11-15T03:50:26;93533.69;;;-0.02;99.93
50093;BME280;35974;47.752;10.290;2022-11-15T03:52:54;93560.13;;;0.09;99.81
50093;BME280;35974;47.752;10.290;2022-11-15T03:55:21;93544.19;;;0.05;100.00
50093;BME280;35974;47.752;10.290;2022-11-15T03:57:49;93520.13;;;-0.04;100.00
50093;BME280;35974;47.752;10.290;2022-11-15T04:00:16;93532.47;;;0.11;100.00
50093;BME280;35974;47.752;10.290;2022-11-15T04:02:43;93531.47;;;0.04;100.00
50093;BME280;35974;47.752;10.290;2022-11-15T04:05:10;93522.06;;;-0.06;100.00
50093;BME280;35974;47.752;10.290;2022-11-15T04:07:36;93536.63;;;0.04;100.00
50093;BME280;35974;47.752;10.290;2022-11-15T04:10:03;93550.84;;;0.16;100.00
50093;BME280;35974;47.752;10.290;2022-11-15T04:12:33;93541.16;;;0.10;100.00
50093;BME280;35974;47.752;10.290;2022-11-15T04:15:04;93533.34;;;0.02;100.00
50093;BME280;35974;47.752;10.290;2022-11-15T04:17:36;93540.41;;;-0.01;100.00
50093;BME280;35974;47.752;10.290;2022-11-15T04:20:04;93511.34;;;-0.19;100.00
50093;BME280;35974;47.752;10.290;2022-11-15T04:22:52;93532.84;;;-0.02;100.00
50093;BME280;35974;47.752;10.290;2022-11-15T04:25:38;93535.84;;;-0.07;100.00
50093;BME280;35974;47.752;10.290;2022-11-15T04:28:04;93529.13;;;-0.08;100.00
50093;BME280;35974;47.752;10.290;2022-11-15T04:30:31;93530.13;;;-0.01;100.00
50093;BME280;35974;47.752;10.290;2022-11-15T04:32:57;93511.84;;;-0.15;100.00
50093;BME280;35974;47.752;10.290;2022-11-15T04:35:24;93506.34;;;-0.21;100.00
50093;BME280;35974;47.752;10.290;2022-11-15T04:37:50;93522.63;;;-0.12;100.00
50093;BME280;35974;47.752;10.290;2022-11-15T04:40:17;93502.66;;;-0.18;100.00
50093;BME280;35974;47.752;10.290;2022-11-15T04:42:43;93510.50;;;-0.20;99.89
50093;BME280;35974;47.752;10.290;2022-11-15T04:45:10;93502.22;;;-0.31;100.00
50093;BME280;35974;47.752;10.290;2022-11-15T04:47:37;93479.28;;;-0.43;99.86
50093;BME280;35974;47.752;10.290;2022-11-15T04:50:04;93502.22;;;-0.31;100.00
50093;BME280;35974;47.752;10.290;2022-11-15T04:52:30;93510.16;;;-0.25;100.00
50093;BME280;35974;47.752;10.290;2022-11-15T04:54:57;93487.09;;;-0.34;99.42
50093;BME280;35974;47.752;10.290;2022-11-15T04:57:26;93498.56;;;-0.11;99.51
50093;BME280;35974;47.752;10.290;2022-11-15T04:59:53;93504.19;;;0.11;98.84
50093;BME280;35974;47.752;10.290;2022-11-15T05:02:19;93493.91;;;-0.07;99.78
50093;BME280;35974;47.752;10.290;2022-11-15T05:04:46;93500.75;;;-0.16;100.00
50093;BME280;35974;47.752;10.290;2022-11-15T05:07:12;93519.63;;;0.11;100.00
50093;BME280;35974;47.752;10.290;2022-11-15T05:09:39;93491.41;;;0.01;100.00
50093;BME280;35974;47.752;10.290;2022-11-15T05:12:05;93499.25;;;-0.01;100.00
50093;BME280;35974;47.752;10.290;2022-11-15T05:14:31;93493.75;;;0.12;100.00
50093;BME280;35974;47.752;10.290;2022-11-15T05:16:58;93477.69;;;-0.08;100.00
50093;BME280;35974;47.752;10.290;2022-11-15T05:19:24;93498.25;;;-0.08;100.00
50093;BME280;35974;47.752;10.290;2022-11-15T05:21:51;93497.25;;;0.11;100.00
50093;BME280;35974;47.752;10.290;2022-11-15T05:24:17;93496.47;;;0.11;100.00
50093;BME280;35974;47.752;10.290;2022-11-15T05:26:44;93491.47;;;-0.09;100.00
50093;BME280;35974;47.752;10.290;2022-11-15T05:29:10;93506.63;;;-0.06;100.00
50093;BME280;35974;47.752;10.290;2022-11-15T05:31:40;93513.53;;;0.12;100.00
50093;BME280;35974;47.752;10.290;2022-11-15T05:34:07;93481.78;;;-0.15;100.00
50093;BME280;35974;47.752;10.290;2022-11-15T05:36:41;93501.69;;;0.01;100.00
50093;BME280;35974;47.752;10.290;2022-11-15T05:39:08;93510.53;;;-0.02;100.00
50093;BME280;35974;47.752;10.290;2022-11-15T05:41:45;93488.84;;;-0.17;100.00
50093;BME280;35974;47.752;10.290;2022-11-15T05:44:22;93493.19;;;-0.17;100.00
50093;BME280;35974;47.752;10.290;2022-11-15T05:46:50;93506.41;;;-0.12;100.00
50093;BME280;35974;47.752;10.290;2022-11-15T05:49:40;93482.53;;;-0.23;100.00
50093;BME280;35974;47.752;10.290;2022-11-15T05:52:10;93489.72;;;-0.26;100.00
50093;BME280;35974;47.752;10.290;2022-11-15T05:54:37;93480.28;;;-0.26;100.00
50093;BME280;35974;47.752;10.290;2022-11-15T05:57:04;93496.50;;;-0.25;100.00
50093;BME280;35974;47.752;10.290;2022-11-15T05:59:33;93509.00;;;-0.30;100.00
50093;BME280;35974;47.752;10.290;2022-11-15T06:01:59;93510.59;;;-0.29;100.00
50093;BME280;35974;47.752;10.290;2022-11-15T06:04:26;93496.06;;;-0.39;100.00
50093;BME280;35974;47.752;10.290;2022-11-15T06:06:53;93487.44;;;-0.47;100.00
50093;BME280;35974;47.752;10.290;2022-11-15T06:09:19;93489.00;;;-0.37;100.00
50093;BME280;35974;47.752;10.290;2022-11-15T06:11:46;93473.94;;;-0.49;100.00
50093;BME280;35974;47.752;10.290;2022-11-15T06:14:12;93474.16;;;-0.43;100.00
50093;BME280;35974;47.752;10.290;2022-11-15T06:16:43;93489.56;;;-0.43;100.00
50093;BME280;35974;47.752;10.290;2022-11-15T06:19:10;93463.72;;;-0.59;100.00
50093;BME280;35974;47.752;10.290;2022-11-15T06:21:36;93497.66;;;-0.38;100.00
50093;BME280;35974;47.752;10.290;2022-11-15T06:24:03;93498.63;;;-0.39;100.00
50093;BME280;35974;47.752;10.290;2022-11-15T06:26:30;93475.25;;;-0.63;100.00
50093;BME280;35974;47.752;10.290;2022-11-15T06:29:03;93493.19;;;-0.53;100.00
50093;BME280;35974;47.752;10.290;2022-11-15T06:31:30;93502.06;;;-0.48;100.00
50093;BME280;35974;47.752;10.290;2022-11-15T06:33:56;93471.34;;;-0.67;100.00
50093;BME280;35974;47.752;10.290;2022-11-15T06:36:23;93470.78;;;-0.61;100.00
50093;BME280;35974;47.752;10.290;2022-11-15T06:38:49;93490.34;;;-0.32;100.00
50093;BME280;35974;47.752;10.290;2022-11-15T06:41:34;93509.56;;;-0.37;100.00
50093;BME280;35974;47.752;10.290;2022-11-15T06:44:01;93484.28;;;-0.59;100.00
50093;BME280;35974;47.752;10.290;2022-11-15T06:46:28;93486.66;;;-0.48;100.00
50093;BME280;35974;47.752;10.290;2022-11-15T06:48:55;93484.00;;;-0.56;100.00
50093;BME280;35974;47.752;10.290;2022-11-15T06:51:21;93487.97;;;-0.44;100.00
50093;BME280;35974;47.752;10.290;2022-11-15T06:53:48;93494.72;;;-0.43;100.00
50093;BME280;35974;47.752;10.290;2022-11-15T06:56:14;93485.78;;;-0.39;100.00
50093;BME280;35974;47.752;10.290;2022-11-15T06:58:41;93496.50;;;-0.25;100.00
50093;BME280;35974;47.752;10.290;2022-11-15T07:01:09;93469.97;;;-0.26;100.00
50093;BME280;35974;47.752;10.290;2022-11-15T07:03:37;93476.00;;;-0.17;100.00
50093;BME280;35974;47.752;10.290;2022-11-15T07:06:06;93490.31;;;0.04;100.00
50093;BME280;35974;47.752;10.290;2022-11-15T07:08:33;93491.59;;;0.08;100.00
50093;BME280;35974;47.752;10.290;2022-11-15T07:11:03;93496.16;;;0.14;100.00
50093;BME280;35974;47.752;10.290;2022-11-15T07:13:31;93493.66;;;0.22;100.00
50093;BME280;35974;47.752;10.290;2022-11-15T07:16:08;93482.16;;;0.34;100.00
50093;BME280;35974;47.752;10.290;2022-11-15T07:18:36;93477.72;;;0.45;100.00
50093;BME280;35974;47.752;10.290;2022-11-15T07:21:11;93470.34;;;0.50;100.00
50093;BME280;35974;47.752;10.290;2022-11-15T07:23:39;93485.19;;;0.56;100.00
50093;BME280;35974;47.752;10.290;2022-11-15T07:26:07;93461.31;;;0.46;100.00
50093;BME280;35974;47.752;10.290;2022-11-15T07:28:34;93478.81;;;0.68;100.00
50093;BME280;35974;47.752;10.290;2022-11-15T07:31:03;93480.59;;;0.76;100.00
50093;BME280;35974;47.752;10.290;2022-11-15T07:33:30;93447.91;;;0.68;100.00
50093;BME280;35974;47.752;10.290;2022-11-15T07:36:01;93476.03;;;0.96;100.00
50093;BME280;35974;47.752;10.290;2022-11-15T07:38:29;93472.38;;;1.07;100.00
50093;BME280;35974;47.752;10.290;2022-11-15T07:41:00;93474.78;;;1.08;100.00
50093;BME280;35974;47.752;10.290;2022-11-15T07:43:27;93457.72;;;1.07;100.00
50093;BME280;35974;47.752;10.290;2022-11-15T07:45:55;93471.00;;;1.29;100.00
50093;BME280;35974;47.752;10.290;2022-11-15T07:48:25;93450.22;;;1.31;100.00
50093;BME280;35974;47.752;10.290;2022-11-15T07:51:06;93462.16;;;1.40;100.00
50093;BME280;35974;47.752;10.290;2022-11-15T07:53:39;93435.25;;;1.51;100.00
50093;BME280;35974;47.752;10.290;2022-11-15T07:56:06;93444.00;;;1.74;100.00
50093;BME280;35974;47.752;10.290;2022-11-15T07:58:46;93429.81;;;1.87;100.00
50093;BME280;35974;47.752;10.290;2022-11-15T08:01:13;93440.47;;;2.00;100.00
50093;BME280;35974;47.752;10.290;2022-11-15T08:03:40;93434.31;;;2.01;100.00
50093;BME280;35974;47.752;10.290;2022-11-15T08:06:06;93446.59;;;1.99;100.00
50093;BME280;35974;47.752;10.290;2022-11-15T08:08:33;93442.69;;;2.03;100.00
50093;BME280;35974;47.752;10.290;2022-11-15T08:11:00;93469.00;;;2.23;100.00
50093;BME280;35974;47.752;10.290;2022-11-15T08:13:26;93447.38;;;2.16;100.00
50093;BME280;35974;47.752;10.290;2022-11-15T08:15:58;93434.28;;;2.17;100.00
50093;BME280;35974;47.752;10.290;2022-11-15T08:18:25;93445.28;;;2.28;100.00
50093;BME280;35974;47.752;10.290;2022-11-15T08:20:51;93465.56;;;2.47;100.00
50093;BME280;35974;47.752;10.290;2022-11-15T08:23:18;93429.75;;;2.44;100.00
50093;BME280;35974;47.752;10.290;2022-11-15T08:25:44;93428.75;;;2.62;100.00
50093;BME280;35974;47.752;10.290;2022-11-15T08:28:11;93419.69;;;2.58;100.00
50093;BME280;35974;47.752;10.290;2022-11-15T08:30:39;93439.91;;;2.93;100.00
50093;BME280;35974;47.752;10.290;2022-11-15T08:33:12;93368.03;;;2.58;100.00
50093;BME280;35974;47.752;10.290;2022-11-15T08:35:42;93421.13;;;3.08;100.00
50093;BME280;35974;47.752;10.290;2022-11-15T08:38:10;93415.16;;;3.07;100.00
50093;BME280;35974;47.752;10.290;2022-11-15T08:40:36;93415.56;;;3.19;100.00
50093;BME280;35974;47.752;10.290;2022-11-15T08:43:03;93405.53;;;3.24;100.00
50093;BME280;35974;47.752;10.290;2022-11-15T08:45:30;93426.38;;;3.54;100.00
50093;BME280;35974;47.752;10.290;2022-11-15T08:47:57;93399.78;;;3.37;100.00
50093;BME280;35974;47.752;10.290;2022-11-15T08:50:24;93419.25;;;3.56;100.00
50093;BME280;35974;47.752;10.290;2022-11-15T08:52:50;93419.13;;;3.73;100.00
50093;BME280;35974;47.752;10.290;2022-11-15T08:55:17;93386.78;;;3.69;100.00
50093;BME280;35974;47.752;10.290;2022-11-15T08:57:43;93418.88;;;4.06;100.00
50093;BME280;35974;47.752;10.290;2022-11-15T09:00:11;93411.94;;;4.21;100.00
50093;BME280;35974;47.752;10.290;2022-11-15T09:02:39;93401.44;;;4.37;100.00
50093;BME280;35974;47.752;10.290;2022-11-15T09:05:06;93403.84;;;4.39;100.00
50093;BME280;35974;47.752;10.290;2022-11-15T09:07:33;93396.16;;;4.46;100.00
50093;BME280;35974;47.752;10.290;2022-11-15T09:09:59;93398.94;;;4.59;100.00
50093;BME280;35974;47.752;10.290;2022-11-15T09:12:26;93364.50;;;4.80;100.00
50093;BME280;35974;47.752;10.290;2022-11-15T09:14:52;93363.63;;;4.88;100.00
50093;BME280;35974;47.752;10.290;2022-11-15T09:17:19;93376.44;;;5.11;100.00
50093;BME280;35974;47.752;10.290;2022-11-15T09:19:50;93369.56;;;5.40;99.97
50093;BME280;35974;47.752;10.290;2022-11-15T09:22:16;93374.50;;;5.56;99.73
50093;BME280;35974;47.752;10.290;2022-11-15T09:24:43;93353.97;;;5.83;98.73
50093;BME280;35974;47.752;10.290;2022-11-15T09:27:09;93366.19;;;6.11;96.95
50093;BME280;35974;47.752;10.290;2022-11-15T09:29:36;93358.06;;;6.20;96.25
50093;BME280;35974;47.752;10.290;2022-11-15T09:32:02;93355.81;;;6.39;95.00
50093;BME280;35974;47.752;10.290;2022-11-15T09:34:29;93381.38;;;6.70;94.70
50093;BME280;35974;47.752;10.290;2022-11-15T09:36:55;93368.19;;;6.72;94.80
50093;BME280;35974;47.752;10.290;2022-11-15T09:39:22;93356.25;;;6.84;95.02
50093;BME280;35974;47.752;10.290;2022-11-15T09:50:56;93349.28;;;7.80;89.38
50093;BME280;35974;47.752;10.290;2022-11-15T09:56:24;93345.69;;;8.14;88.85
50093;BME280;35974;47.752;10.290;2022-11-15T10:04:36;93339.19;;;8.77;82.98
50093;BME280;35974;47.752;10.290;2022-11-15T10:07:25;93317.69;;;8.82;80.26
50093;BME280;35974;47.752;10.290;2022-11-15T10:09:56;93335.03;;;9.14;79.56
50093;BME280;35974;47.752;10.290;2022-11-15T10:12:27;93327.56;;;9.25;79.06
50093;BME280;35974;47.752;10.290;2022-11-15T10:15:04;93325.28;;;9.35;78.61
50093;BME280;35974;47.752;10.290;2022-11-15T10:20:21;93325.47;;;9.72;75.87
50093;BME280;35974;47.752;10.290;2022-11-15T10:23:10;93319.91;;;9.62;77.63
50093;BME280;35974;47.752;10.290;2022-11-15T10:25:38;93296.16;;;9.70;74.43
50093;BME280;35974;47.752;10.290;2022-11-15T10:28:22;93308.63;;;10.18;71.78
50093;BME280;35974;47.752;10.290;2022-11-15T10:30:53;93310.34;;;10.06;73.79
50093;BME280;35974;47.752;10.290;2022-11-15T10:36:15;93289.97;;;10.40;71.71
50093;BME280;35974;47.752;10.290;2022-11-15T10:41:16;93275.13;;;10.34;69.85
50093;BME280;35974;47.752;10.290;2022-11-15T10:43:44;93275.84;;;10.41;69.49
50093;BME280;35974;47.752;10.290;2022-11-15T10:46:20;93273.09;;;10.36;68.60
50093;BME280;35974;47.752;10.290;2022-11-15T10:49:23;93276.59;;;10.48;69.50
50093;BME280;35974;47.752;10.290;2022-11-15T10:51:57;93267.59;;;10.62;70.37
50093;BME280;35974;47.752;10.290;2022-11-15T10:54:37;93270.47;;;10.54;69.93
50093;BME280;35974;47.752;10.290;2022-11-15T10:57:12;93242.41;;;10.43;70.08
50093;BME280;35974;47.752;10.290;2022-11-15T10:59:47;93236.63;;;10.59;69.94
50093;BME280;35974;47.752;10.290;2022-11-15T11:05:05;93240.41;;;10.63;69.05
50093;BME280;35974;47.752;10.290;2022-11-15T11:07:34;93258.34;;;10.60;70.59
50093;BME280;35974;47.752;10.290;2022-11-15T11:10:21;93264.22;;;10.74;70.20
50093;BME280;35974;47.752;10.290;2022-11-15T11:13:20;93239.22;;;10.78;70.88
50093;BME280;35974;47.752;10.290;2022-11-15T11:21:33;93219.97;;;11.03;70.95
50093;BME280;35974;47.752;10.290;2022-11-15T11:24:16;93237.72;;;11.01;70.16
50093;BME280;35974;47.752;10.290;2022-11-15T11:30:12;93231.78;;;11.24;71.89
50093;BME280;35974;47.752;10.290;2022-11-15T11:38:39;93216.03;;;11.54;71.38
50093;BME280;35974;47.752;10.290;2022-11-15T11:41:43;93192.97;;;11.32;70.84
50093;BME280;35974;47.752;10.290;2022-11-15T11:47:06;93223.31;;;11.52;71.02
50093;BME280;35974;47.752;10.290;2022-11-15T11:49:39;93227.63;;;11.58;70.86
50093;BME280;35974;47.752;10.290;2022-11-15T11:52:22;93202.34;;;11.52;70.58
50093;BME280;35974;47.752;10.290;2022-11-15T11:55:39;93224.91;;;11.65;70.59
50093;BME280;35974;47.752;10.290;2022-11-15T11:58:33;93219.44;;;11.66;71.25
50093;BME280;35974;47.752;10.290;2022-11-15T12:01:28;93211.25;;;11.75;71.32
50093;BME280;35974;47.752;10.290;2022-11-15T12:04:15;93218.78;;;11.83;70.78
50093;BME280;35974;47.752;10.290;2022-11-15T12:06:56;93222.66;;;11.68;71.50
50093;BME280;35974;47.752;10.290;2022-11-15T12:09:58;93224.94;;;11.77;71.81
50093;BME280;35974;47.752;10.290;2022-11-15T12:15:32;93199.91;;;12.04;70.44
50093;BME280;35974;47.752;10.290;2022-11-15T12:18:14;93190.53;;;11.97;68.63
50093;BME280;35974;47.752;10.290;2022-11-15T12:20:56;93208.09;;;12.20;69.00
50093;BME280;35974;47.752;10.290;2022-11-15T12:23:28;93192.25;;;12.15;69.43
50093;BME280;35974;47.752;10.290;2022-11-15T12:26:06;93205.81;;;12.12;68.57
50093;BME280;35974;47.752;10.290;2022-11-15T12:28:52;93189.97;;;12.06;67.43
50093;BME280;35974;47.752;10.290;2022-11-15T12:31:41;93211.13;;;11.69;66.06
50093;BME280;35974;47.752;10.290;2022-11-15T12:34:38;93221.97;;;11.85;65.80
50093;BME280;35974;47.752;10.290;2022-11-15T12:43:00;93218.34;;;12.09;68.73
50093;BME280;35974;47.752;10.290;2022-11-15T12:45:33;93225.63;;;12.31;70.17
50093;BME280;35974;47.752;10.290;2022-11-15T12:56:16;93221.88;;;12.79;69.24
50093;BME280;35974;47.752;10.290;2022-11-15T13:06:55;93226.69;;;12.82;62.79
50093;BME280;35974;47.752;10.290;2022-11-15T13:14:56;93212.91;;;11.99;65.67
50093;BME280;35974;47.752;10.290;2022-11-15T13:17:27;93231.56;;;12.15;65.24
50093;BME280;35974;47.752;10.290;2022-11-15T13:20:02;93231.88;;;11.71;66.84
50093;BME280;35974;47.752;10.290;2022-11-15T13:22:48;93219.69;;;11.77;66.89
50093;BME280;35974;47.752;10.290;2022-11-15T13:30:53;93230.56;;;11.50;69.51
50093;BME280;35974;47.752;10.290;2022-11-15T13:33:27;93253.38;;;11.61;69.58
50093;BME280;35974;47.752;10.290;2022-11-15T13:36:05;93248.41;;;11.71;69.35
50093;BME280;35974;47.752;10.290;2022-11-15T13:38:35;93245.53;;;11.61;68.42
50093;BME280;35974;47.752;10.290;2022-11-15T13:41:18;93219.16;;;11.32;69.09
50093;BME280;35974;47.752;10.290;2022-11-15T13:43:48;93238.28;;;11.21;70.39
50093;BME280;35974;47.752;10.290;2022-11-15T13:48:45;93237.78;;;11.24;71.02
50093;BME280;35974;47.752;10.290;2022-11-15T13:51:20;93234.41;;;11.35;72.13
50093;BME280;35974;47.752;10.290;2022-11-15T13:53:56;93213.75;;;11.69;72.21
50093;BME280;35974;47.752;10.290;2022-11-15T13:56:27;93216.09;;;12.01;70.03
50093;BME280;35974;47.752;10.290;2022-11-15T13:58:54;93201.97;;;12.02;68.84
50093;BME280;35974;47.752;10.290;2022-11-15T14:01:21;93206.38;;;12.25;68.19
50093;BME280;35974;47.752;10.290;2022-11-15T14:03:55;93221.41;;;12.42;68.74
50093;BME280;35974;47.752;10.290;2022-11-15T14:06:25;93215.38;;;12.41;67.36
50093;BME280;35974;47.752;10.290;2022-11-15T14:12:02;93196.22;;;12.05;69.66
50093;BME280;35974;47.752;10.290;2022-11-15T14:14:29;93209.69;;;12.21;69.24
50093;BME280;35974;47.752;10.290;2022-11-15T14:17:00;93206.72;;;12.05;69.04
50093;BME280;35974;47.752;10.290;2022-11-15T14:22:09;93199.56;;;12.01;69.26
50093;BME280;35974;47.752;10.290;2022-11-15T14:24:37;93203.19;;;12.12;69.03
50093;BME280;35974;47.752;10.290;2022-11-15T14:29:43;93180.50;;;11.82;70.61
50093;BME280;35974;47.752;10.290;2022-11-15T14:32:16;93188.50;;;12.11;70.46
50093;BME280;35974;47.752;10.290;2022-11-15T14:34:58;93190.66;;;12.02;69.75
50093;BME280;35974;47.752;10.290;2022-11-15T14:37:32;93185.53;;;11.95;70.88
50093;BME280;35974;47.752;10.290;2022-11-15T14:40:04;93183.22;;;11.87;71.71
50093;BME280;35974;47.752;10.290;2022-11-15T14:42:31;93164.28;;;11.61;72.65
50093;BME280;35974;47.752;10.290;2022-11-15T14:45:13;93181.84;;;11.72;72.63
50093;BME280;35974;47.752;10.290;2022-11-15T14:47:41;93184.25;;;11.62;73.15
50093;BME280;35974;47.752;10.290;2022-11-15T14:50:21;93172.03;;;11.32;73.66
50093;BME280;35974;47.752;10.290;2022-11-15T14:52:48;93187.13;;;11.18;74.07
50093;BME280;35974;47.752;10.290;2022-11-15T14:55:18;93156.56;;;10.89;74.52
50093;BME280;35974;47.752;10.290;2022-11-15T14:57:46;93151.22;;;10.65;75.71
50093;BME280;35974;47.752;10.290;2022-11-15T15:00:14;93147.22;;;10.93;74.53
50093;BME280;35974;47.752;10.290;2022-11-15T15:02:42;93153.75;;;11.14;73.76
50093;BME280;35974;47.752;10.290;2022-11-15T15:07:41;93127.94;;;10.45;76.07
50093;BME280;35974;47.752;10.290;2022-11-15T15:10:09;93144.56;;;10.81;74.85
50093;BME280;35974;47.752;10.290;2022-11-15T15:12:55;93146.19;;;10.82;75.00
50093;BME280;35974;47.752;10.290;2022-11-15T15:15:24;93127.72;;;10.77;75.73
50093;BME280;35974;47.752;10.290;2022-11-15T15:17:51;93091.91;;;10.47;75.90
50093;BME280;35974;47.752;10.290;2022-11-15T15:20:18;93125.84;;;10.66;76.44
50093;BME280;35974;47.752;10.290;2022-11-15T15:22:44;93101.47;;;10.53;76.52